sensor_id;sensor_type;location;lat;lon;timestamp;pressure;altitude;pressure_sealevel;temperature;humidity
12759;BME280;20944;47.048;15.390;2023-05-21T00:00:39;97567.28;;;15.20;100.00
12759;BME280;20944;47.048;15.390;2023-05-21T00:03:07;97518.75;;;14.86;100.00
12759;BME280;20944;47.048;15.390;2023-05-21T00:05:41;97517.97;;;14.84;100.00
12759;BME280;20944;47.048;15.390;2023-05-21T00:08:11;97568.84;;;15.24;100.00
12759;BME280;20944;47.048;15.390;2023-05-21T00:10:39;97576.06;;;15.20;100.00
12759;BME280;20944;47.048;15.390;2023-05-21T00:13:08;97567.84;;;15.07;100.00
12759;BME280;20944;47.048;15.390;2023-05-21T00:15:36;97566.63;;;14.96;100.00
12759;BME280;20944;47.048;15.390;2023-05-21T00:18:05;97560.66;;;14.92;100.00
12759;BME280;20944;47.048;15.390;2023-05-21T00:20:33;97554.91;;;14.84;100.00
12759;BME280;20944;47.048;15.390;2023-05-21T00:23:04;97566.16;;;14.88;100.00
12759;BME280;20944;47.048;15.390;2023-05-21T00:25:32;97565.16;;;14.90;100.00
12759;BME280;20944;47.048;15.390;2023-05-21T00:28:01;97558.31;;;14.86;100.00
12759;BME280;20944;47.048;15.390;2023-05-21T00:30:29;97561.72;;;14.88;100.00
12759;BME280;20944;47.048;15.390;2023-05-21T00:32:57;97563.66;;;15.03;100.00
12759;BME280;20944;47.048;15.390;2023-05-21T00:35:28;97556.81;;;14.99;100.00
12759;BME280;20944;47.048;15.390;2023-05-21T00:37:57;97546.47;;;14.95;100.00
12759;BME280;20944;47.048;15.390;2023-05-21T00:40:27;97551.81;;;14.93;100.00
12759;BME280;20944;47.048;15.390;2023-05-21T00:42:55;97554.81;;;14.86;100.00
12759;BME280;20944;47.048;15.390;2023-05-21T00:45:24;97545.47;;;14.97;100.00
12759;BME280;20944;47.048;15.390;2023-05-21T00:47:52;97544.47;;;15.00;100.00
12759;BME280;20944;47.048;15.390;2023-05-21T00:50:22;97545.31;;;15.00;100.00
12759;BME280;20944;47.048;15.390;2023-05-21T00:52:50;97555.19;;;14.97;100.00
12759;BME280;20944;47.048;15.390;2023-05-21T00:55:19;97549.91;;;14.97;100.00
12759;BME280;20944;47.048;15.390;2023-05-21T00:57:49;97541.06;;;14.98;100.00
12759;BME280;20944;47.048;15.390;2023-05-21T01:00:18;97541.19;;;14.95;100.00
12759;BME280;20944;47.048;15.390;2023-05-21T01:02:46;97542.00;;;14.97;100.00
12759;BME280;20944;47.048;15.390;2023-05-21T01:05:15;97537.28;;;15.03;100.00
12759;BME280;20944;47.048;15.390;2023-05-21T01:07:44;97533.78;;;15.03;100.00
12759;BME280;20944;47.048;15.390;2023-05-21T01:10:12;97534.66;;;15.03;100.00
12759;BME280;20944;47.048;15.390;2023-05-21T01:12:42;97531.34;;;14.98;100.00
12759;BME280;20944;47.048;15.390;2023-05-21T01:15:12;97539.75;;;15.06;100.00
12759;BME280;20944;47.048;15.390;2023-05-21T01:17:41;97534.19;;;15.13;100.00
12759;BME280;20944;47.048;15.390;2023-05-21T01:20:12;97523.94;;;15.06;100.00
12759;BME280;20944;47.048;15.390;2023-05-21T01:22:50;97527.97;;;15.14;100.00
12759;BME280;20944;47.048;15.390;2023-05-21T01:25:20;97527.97;;;15.14;100.00
12759;BME280;20944;47.048;15.390;2023-05-21T01:27:49;97527.63;;;15.21;100.00
12759;BME280;20944;47.048;15.390;2023-05-21T01:30:18;97524.75;;;15.26;100.00
12759;BME280;20944;47.048;15.390;2023-05-21T01:32:54;97522.06;;;15.27;100.00
12759;BME280;20944;47.048;15.390;2023-05-21T01:35:26;97518.31;;;15.31;100.00
12759;BME280;20944;47.048;15.390;2023-05-21T01:38:04;97521.34;;;15.24;100.00
12759;BME280;20944;47.048;15.390;2023-05-21T01:40:37;97517.97;;;15.20;100.00
12759;BME280;20944;47.048;15.390;2023-05-21T01:43:07;97515.41;;;15.19;100.00
12759;BME280;20944;47.048;15.390;2023-05-21T01:45:39;97517.72;;;15.07;100.00
12759;BME280;20944;47.048;15.390;2023-05-21T01:48:08;97516.09;;;15.05;100.00
12759;BME280;20944;47.048;15.390;2023-05-21T01:50:39;97517.97;;;15.03;100.00
12759;BME280;20944;47.048;15.390;2023-05-21T01:53:10;97513.25;;;15.09;100.00
12759;BME280;20944;47.048;15.390;2023-05-21T01:55:38;97512.31;;;15.10;100.00
12759;BME280;20944;47.048;15.390;2023-05-21T01:58:08;97518.53;;;15.27;100.00
12759;BME280;20944;47.048;15.390;2023-05-21T02:00:36;97500.53;;;15.18;100.00
12759;BME280;20944;47.048;15.390;2023-05-21T02:03:05;97505.78;;;15.18;100.00
12759;BME280;20944;47.048;15.390;2023-05-21T02:05:34;97505.78;;;15.18;100.00
12759;BME280;20944;47.048;15.390;2023-05-21T02:08:04;97505.38;;;15.08;100.00
12759;BME280;20944;47.048;15.390;2023-05-21T02:10:35;97496.00;;;15.02;100.00
12759;BME280;20944;47.048;15.390;2023-05-21T02:13:04;97446.31;;;14.74;100.00
12759;BME280;20944;47.048;15.390;2023-05-21T02:15:32;97486.28;;;15.03;100.00
12759;BME280;20944;47.048;15.390;2023-05-21T02:18:01;97491.47;;;15.04;100.00
12759;BME280;20944;47.048;15.390;2023-05-21T02:20:30;97390.06;;;14.36;100.00
12759;BME280;20944;47.048;15.390;2023-05-21T02:22:59;97503.97;;;14.82;100.00
12759;BME280;20944;47.048;15.390;2023-05-21T02:25:27;97393.13;;;14.08;100.00
12759;BME280;20944;47.048;15.390;2023-05-21T02:27:57;97503.41;;;14.75;100.00
12759;BME280;20944;47.048;15.390;2023-05-21T02:30:25;97520.03;;;14.77;100.00
12759;BME280;20944;47.048;15.390;2023-05-21T02:32:54;97519.03;;;14.80;100.00
12759;BME280;20944;47.048;15.390;2023-05-21T02:35:24;97527.13;;;14.75;100.00
12759;BME280;20944;47.048;15.390;2023-05-21T02:37:53;97517.72;;;14.70;100.00
12759;BME280;20944;47.048;15.390;2023-05-21T02:40:25;97514.19;;;14.71;100.00
12759;BME280;20944;47.048;15.390;2023-05-21T02:42:53;97495.84;;;14.49;100.00
12759;BME280;20944;47.048;15.390;2023-05-21T02:45:23;97516.31;;;14.63;100.00
12759;BME280;20944;47.048;15.390;2023-05-21T02:47:51;97517.50;;;14.55;100.00
12759;BME280;20944;47.048;15.390;2023-05-21T02:50:19;97507.91;;;14.54;100.00
12759;BME280;20944;47.048;15.390;2023-05-21T02:52:49;97489.78;;;14.47;100.00
12759;BME280;20944;47.048;15.390;2023-05-21T02:55:18;97502.91;;;14.48;100.00
12759;BME280;20944;47.048;15.390;2023-05-21T02:57:46;97490.25;;;14.36;100.00
12759;BME280;20944;47.048;15.390;2023-05-21T03:00:15;97502.56;;;14.36;100.00
12759;BME280;20944;47.048;15.390;2023-05-21T03:02:45;97499.84;;;14.37;100.00
12759;BME280;20944;47.048;15.390;2023-05-21T03:05:13;97493.81;;;14.35;100.00
12759;BME280;20944;47.048;15.390;2023-05-21T03:07:42;97484.59;;;14.25;100.00
12759;BME280;20944;47.048;15.390;2023-05-21T03:10:10;97469.13;;;14.17;100.00
12759;BME280;20944;47.048;15.390;2023-05-21T03:12:38;97488.66;;;14.32;100.00
12759;BME280;20944;47.048;15.390;2023-05-21T03:15:07;97479.78;;;14.35;100.00
12759;BME280;20944;47.048;15.390;2023-05-21T03:17:36;97487.03;;;14.29;100.00
12759;BME280;20944;47.048;15.390;2023-05-21T03:20:07;97479.84;;;14.33;100.00
12759;BME280;20944;47.048;15.390;2023-05-21T03:22:42;97488.53;;;14.35;100.00
12759;BME280;20944;47.048;15.390;2023-05-21T03:25:11;97439.47;;;14.12;100.00
12759;BME280;20944;47.048;15.390;2023-05-21T03:27:39;97481.59;;;14.32;100.00
12759;BME280;20944;47.048;15.390;2023-05-21T03:30:08;97485.16;;;14.31;100.00
12759;BME280;20944;47.048;15.390;2023-05-21T03:32:36;97486.63;;;14.18;100.00
12759;BME280;20944;47.048;15.390;2023-05-21T03:35:09;97451.50;;;13.99;100.00
12759;BME280;20944;47.048;15.390;2023-05-21T03:37:37;97492.28;;;14.29;100.00
12759;BME280;20944;47.048;15.390;2023-05-21T03:40:06;97491.63;;;14.24;100.00
12759;BME280;20944;47.048;15.390;2023-05-21T03:42:35;97500.41;;;14.25;100.00
12759;BME280;20944;47.048;15.390;2023-05-21T03:45:03;97504.53;;;14.30;100.00
12759;BME280;20944;47.048;15.390;2023-05-21T03:47:32;97482.47;;;14.33;100.00
12759;BME280;20944;47.048;15.390;2023-05-21T03:50:02;97485.50;;;14.24;100.00
12759;BME280;20944;47.048;15.390;2023-05-21T03:52:32;97495.44;;;14.38;100.00
12759;BME280;20944;47.048;15.390;2023-05-21T03:55:01;97500.59;;;14.41;100.00
12759;BME280;20944;47.048;15.390;2023-05-21T03:57:29;97504.75;;;14.46;100.00
12759;BME280;20944;47.048;15.390;2023-05-21T03:59:57;97506.47;;;14.47;100.00
12759;BME280;20944;47.048;15.390;2023-05-21T04:02:26;97511.31;;;14.56;100.00
12759;BME280;20944;47.048;15.390;2023-05-21T04:04:54;97509.47;;;14.59;100.00
12759;BME280;20944;47.048;15.390;2023-05-21T04:07:23;97473.13;;;14.45;100.00
12759;BME280;20944;47.048;15.390;2023-05-21T04:09:54;97512.81;;;14.81;100.00
12759;BME280;20944;47.048;15.390;2023-05-21T04:12:22;97523.84;;;14.89;100.00
12759;BME280;20944;47.048;15.390;2023-05-21T04:14:50;97520.94;;;14.95;100.00
12759;BME280;20944;47.048;15.390;2023-05-21T04:17:19;97519.22;;;15.13;100.00
12759;BME280;20944;47.048;15.390;2023-05-21T04:19:47;97509.72;;;15.28;100.00
12759;BME280;20944;47.048;15.390;2023-05-21T04:22:15;97513.75;;;15.35;100.00
12759;BME280;20944;47.048;15.390;2023-05-21T04:24:44;97527.47;;;15.60;100.00
12759;BME280;20944;47.048;15.390;2023-05-21T04:27:16;97458.75;;;15.26;100.00
12759;BME280;20944;47.048;15.390;2023-05-21T04:29:45;97543.94;;;15.84;100.00
12759;BME280;20944;47.048;15.390;2023-05-21T04:32:16;97533.72;;;15.77;100.00
12759;BME280;20944;47.048;15.390;2023-05-21T04:34:44;97535.03;;;15.68;100.00
12759;BME280;20944;47.048;15.390;2023-05-21T04:37:13;97530.81;;;15.64;100.00
12759;BME280;20944;47.048;15.390;2023-05-21T04:39:43;97543.84;;;15.86;100.00
12759;BME280;20944;47.048;15.390;2023-05-21T04:42:12;97514.16;;;15.81;100.00
12759;BME280;20944;47.048;15.390;2023-05-21T04:44:42;97556.25;;;16.18;100.00
12759;BME280;20944;47.048;15.390;2023-05-21T04:47:10;97551.28;;;16.30;100.00
12759;BME280;20944;47.048;15.390;2023-05-21T04:49:40;97550.66;;;16.25;100.00
12759;BME280;20944;47.048;15.390;2023-05-21T04:52:09;97557.75;;;16.24;100.00
12759;BME280;20944;47.048;15.390;2023-05-21T04:54:37;97552.59;;;16.38;100.00
12759;BME280;20944;47.048;15.390;2023-05-21T04:57:07;97375.66;;;15.50;100.00
12759;BME280;20944;47.048;15.390;2023-05-21T04:59:36;97547.06;;;16.76;100.00
12759;BME280;20944;47.048;15.390;2023-05-21T05:02:06;97548.50;;;16.99;100.00
12759;BME280;20944;47.048;15.390;2023-05-21T05:04:34;97556.09;;;17.21;100.00
12759;BME280;20944;47.048;15.390;2023-05-21T05:07:03;97557.44;;;17.44;100.00
12759;BME280;20944;47.048;15.390;2023-05-21T05:09:31;97563.94;;;17.54;100.00
12759;BME280;20944;47.048;15.390;2023-05-21T05:11:59;97552.72;;;17.65;100.00
12759;BME280;20944;47.048;15.390;2023-05-21T05:14:28;97564.09;;;17.83;100.00
12759;BME280;20944;47.048;15.390;2023-05-21T05:16:56;97563.13;;;17.99;100.00
12759;BME280;20944;47.048;15.390;2023-05-21T05:19:28;97565.31;;;18.07;100.00
12759;BME280;20944;47.048;15.390;2023-05-21T05:21:57;97517.56;;;17.93;100.00
12759;BME280;20944;47.048;15.390;2023-05-21T05:24:26;97561.31;;;18.44;100.00
12759;BME280;20944;47.048;15.390;2023-05-21T05:26:54;97531.28;;;18.44;100.00
12759;BME280;20944;47.048;15.390;2023-05-21T05:29:22;97563.47;;;18.82;100.00
12759;BME280;20944;47.048;15.390;2023-05-21T05:31:50;97567.72;;;18.99;100.00
12759;BME280;20944;47.048;15.390;2023-05-21T05:34:19;97564.84;;;19.16;100.00
12759;BME280;20944;47.048;15.390;2023-05-21T05:36:48;97571.00;;;19.17;100.00
12759;BME280;20944;47.048;15.390;2023-05-21T05:39:17;97561.63;;;18.97;100.00
12759;BME280;20944;47.048;15.390;2023-05-21T05:41:45;97557.84;;;19.01;100.00
12759;BME280;20944;47.048;15.390;2023-05-21T05:44:14;97578.03;;;19.18;100.00
12759;BME280;20944;47.048;15.390;2023-05-21T05:46:42;97580.56;;;19.33;100.00
12759;BME280;20944;47.048;15.390;2023-05-21T05:49:10;97579.22;;;19.40;100.00
12759;BME280;20944;47.048;15.390;2023-05-21T05:51:39;97579.44;;;19.37;100.00
12759;BME280;20944;47.048;15.390;2023-05-21T05:54:09;97559.59;;;19.43;100.00
12759;BME280;20944;47.048;15.390;2023-05-21T05:56:37;97575.00;;;19.65;100.00
12759;BME280;20944;47.048;15.390;2023-05-21T05:59:05;97577.09;;;19.74;100.00
12759;BME280;20944;47.048;15.390;2023-05-21T06:01:34;97578.69;;;19.77;100.00
12759;BME280;20944;47.048;15.390;2023-05-21T06:04:02;97574.59;;;19.71;100.00
12759;BME280;20944;47.048;15.390;2023-05-21T06:06:30;97573.72;;;19.58;100.00
12759;BME280;20944;47.048;15.390;2023-05-21T06:09:00;97571.91;;;19.44;100.00
12759;BME280;20944;47.048;15.390;2023-05-21T06:11:30;97566.59;;;19.58;100.00
12759;BME280;20944;47.048;15.390;2023-05-21T06:13:58;97579.63;;;19.76;100.00
12759;BME280;20944;47.048;15.390;2023-05-21T06:16:27;97574.13;;;19.91;100.00
12759;BME280;20944;47.048;15.390;2023-05-21T06:18:57;97578.66;;;20.16;100.00
12759;BME280;20944;47.048;15.390;2023-05-21T06:21:25;97575.00;;;20.32;100.00
12759;BME280;20944;47.048;15.390;2023-05-21T06:23:54;97586.31;;;20.48;100.00
12759;BME280;20944;47.048;15.390;2023-05-21T06:26:22;97567.97;;;20.43;100.00
12759;BME280;20944;47.048;15.390;2023-05-21T06:28:52;97578.34;;;20.61;100.00
12759;BME280;20944;47.048;15.390;2023-05-21T06:31:20;97574.81;;;20.73;100.00
12759;BME280;20944;47.048;15.390;2023-05-21T06:33:49;97554.59;;;20.83;100.00
12759;BME280;20944;47.048;15.390;2023-05-21T06:36:17;97566.50;;;20.90;100.00
12759;BME280;20944;47.048;15.390;2023-05-21T06:38:46;97576.81;;;21.08;100.00
12759;BME280;20944;47.048;15.390;2023-05-21T06:41:14;97580.94;;;21.24;100.00
12759;BME280;20944;47.048;15.390;2023-05-21T06:43:42;97584.56;;;21.36;100.00
12759;BME280;20944;47.048;15.390;2023-05-21T06:46:12;97489.81;;;20.83;100.00
12759;BME280;20944;47.048;15.390;2023-05-21T06:48:41;97571.69;;;21.17;100.00
12759;BME280;20944;47.048;15.390;2023-05-21T06:51:09;97581.59;;;21.15;100.00
12759;BME280;20944;47.048;15.390;2023-05-21T06:53:37;97568.75;;;20.96;100.00
12759;BME280;20944;47.048;15.390;2023-05-21T06:56:06;97541.91;;;20.74;100.00
12759;BME280;20944;47.048;15.390;2023-05-21T06:58:34;97568.00;;;20.94;100.00
12759;BME280;20944;47.048;15.390;2023-05-21T07:01:02;97575.16;;;20.94;100.00
12759;BME280;20944;47.048;15.390;2023-05-21T07:03:32;97581.09;;;20.85;100.00
12759;BME280;20944;47.048;15.390;2023-05-21T07:06:00;97573.34;;;20.82;100.00
12759;BME280;20944;47.048;15.390;2023-05-21T07:08:29;97580.81;;;20.77;100.00
12759;BME280;20944;47.048;15.390;2023-05-21T07:10:57;97571.66;;;20.68;100.00
12759;BME280;20944;47.048;15.390;2023-05-21T07:13:25;97574.41;;;20.66;100.00
12759;BME280;20944;47.048;15.390;2023-05-21T07:15:54;97575.47;;;20.77;100.00
12759;BME280;20944;47.048;15.390;2023-05-21T07:18:22;97572.56;;;20.92;100.00
12759;BME280;20944;47.048;15.390;2023-05-21T07:20:52;97575.22;;;21.05;100.00
12759;BME280;20944;47.048;15.390;2023-05-21T07:23:20;97558.78;;;21.11;100.00
12759;BME280;20944;47.048;15.390;2023-05-21T07:25:49;97543.97;;;21.20;100.00
12759;BME280;20944;47.048;15.390;2023-05-21T07:28:17;97583.69;;;21.48;100.00
12759;BME280;20944;47.048;15.390;2023-05-21T07:30:46;97566.78;;;21.61;100.00
12759;BME280;20944;47.048;15.390;2023-05-21T07:33:14;97562.22;;;21.63;100.00
12759;BME280;20944;47.048;15.390;2023-05-21T07:35:43;97569.84;;;21.91;100.00
12759;BME280;20944;47.048;15.390;2023-05-21T07:38:12;97579.06;;;22.11;100.00
12759;BME280;20944;47.048;15.390;2023-05-21T07:40:41;97571.97;;;22.23;73.42
12759;BME280;20944;47.048;15.390;2023-05-21T07:43:09;97570.25;;;22.22;70.92
12759;BME280;20944;47.048;15.390;2023-05-21T07:45:37;97570.97;;;22.13;70.79
12759;BME280;20944;47.048;15.390;2023-05-21T07:48:06;97557.72;;;22.11;72.45
12759;BME280;20944;47.048;15.390;2023-05-21T07:50:34;97566.28;;;22.27;72.21
12759;BME280;20944;47.048;15.390;2023-05-21T07:53:03;97543.59;;;22.33;69.08
12759;BME280;20944;47.048;15.390;2023-05-21T07:55:33;97567.06;;;22.52;67.17
12759;BME280;20944;47.048;15.390;2023-05-21T07:58:01;97561.44;;;22.44;67.85
12759;BME280;20944;47.048;15.390;2023-05-21T08:00:41;97567.66;;;22.55;69.41
12759;BME280;20944;47.048;15.390;2023-05-21T08:03:10;97570.38;;;22.67;68.89
12759;BME280;20944;47.048;15.390;2023-05-21T08:05:38;97579.94;;;22.58;68.83
12759;BME280;20944;47.048;15.390;2023-05-21T08:08:07;97570.59;;;22.52;68.23
12759;BME280;20944;47.048;15.390;2023-05-21T08:10:37;97562.53;;;22.41;67.71
12759;BME280;20944;47.048;15.390;2023-05-21T08:13:05;97566.41;;;22.26;67.62
12759;BME280;20944;47.048;15.390;2023-05-21T08:15:33;97573.16;;;22.19;67.91
12759;BME280;20944;47.048;15.390;2023-05-21T08:18:02;97558.94;;;22.18;68.68
12759;BME280;20944;47.048;15.390;2023-05-21T08:20:31;97552.41;;;22.22;68.71
12759;BME280;20944;47.048;15.390;2023-05-21T08:23:00;97571.75;;;22.37;66.41
12759;BME280;20944;47.048;15.390;2023-05-21T08:25:28;97575.69;;;22.44;67.78
12759;BME280;20944;47.048;15.390;2023-05-21T08:27:58;97567.56;;;22.57;68.37
12759;BME280;20944;47.048;15.390;2023-05-21T08:30:26;97576.69;;;22.77;65.93
12759;BME280;20944;47.048;15.390;2023-05-21T08:32:55;97566.66;;;22.92;65.39
12759;BME280;20944;47.048;15.390;2023-05-21T08:35:23;97557.44;;;23.07;66.45
12759;BME280;20944;47.048;15.390;2023-05-21T08:37:51;97571.53;;;23.09;64.34
12759;BME280;20944;47.048;15.390;2023-05-21T08:40:20;97568.47;;;22.91;64.73
12759;BME280;20944;47.048;15.390;2023-05-21T08:42:48;97560.41;;;22.80;67.13
12759;BME280;20944;47.048;15.390;2023-05-21T08:45:20;97567.19;;;22.61;65.60
12759;BME280;20944;47.048;15.390;2023-05-21T08:47:54;97560.50;;;22.45;65.27
12759;BME280;20944;47.048;15.390;2023-05-21T08:50:25;97567.41;;;22.47;65.71
12759;BME280;20944;47.048;15.390;2023-05-21T08:52:54;97572.28;;;22.53;64.43
12759;BME280;20944;47.048;15.390;2023-05-21T08:55:24;97564.88;;;22.46;64.36
12759;BME280;20944;47.048;15.390;2023-05-21T08:57:53;97573.56;;;22.37;66.46
12759;BME280;20944;47.048;15.390;2023-05-21T09:00:23;97568.59;;;22.32;67.90
12759;BME280;20944;47.048;15.390;2023-05-21T09:02:52;97575.38;;;22.36;67.86
12759;BME280;20944;47.048;15.390;2023-05-21T09:05:22;97556.44;;;22.28;66.62
12759;BME280;20944;47.048;15.390;2023-05-21T09:07:57;97531.03;;;22.11;70.51
12759;BME280;20944;47.048;15.390;2023-05-21T09:10:30;97541.06;;;22.31;66.59
12759;BME280;20944;47.048;15.390;2023-05-21T09:13:01;97538.50;;;22.41;66.90
12759;BME280;20944;47.048;15.390;2023-05-21T09:15:31;97564.66;;;22.60;64.92
12759;BME280;20944;47.048;15.390;2023-05-21T09:18:00;97566.09;;;22.53;63.06
12759;BME280;20944;47.048;15.390;2023-05-21T09:20:29;97571.81;;;22.59;63.56
12759;BME280;20944;47.048;15.390;2023-05-21T09:23:01;97543.97;;;22.40;61.95
12759;BME280;20944;47.048;15.390;2023-05-21T09:25:30;97553.47;;;22.66;63.00
12759;BME280;20944;47.048;15.390;2023-05-21T09:27:58;97566.88;;;22.77;62.11
12759;BME280;20944;47.048;15.390;2023-05-21T09:30:27;97566.72;;;22.79;64.06
12759;BME280;20944;47.048;15.390;2023-05-21T09:33:00;97572.63;;;22.95;64.41
12759;BME280;20944;47.048;15.390;2023-05-21T09:35:29;97563.09;;;23.25;62.29
12759;BME280;20944;47.048;15.390;2023-05-21T09:37:57;97555.19;;;23.46;57.66
12759;BME280;20944;47.048;15.390;2023-05-21T09:40:27;97565.13;;;23.77;60.64
12759;BME280;20944;47.048;15.390;2023-05-21T09:42:55;97563.44;;;23.76;58.08
12759;BME280;20944;47.048;15.390;2023-05-21T09:45:25;97565.38;;;23.74;59.23
12759;BME280;20944;47.048;15.390;2023-05-21T09:47:54;97566.47;;;23.72;58.22
12759;BME280;20944;47.048;15.390;2023-05-21T09:50:25;97565.97;;;23.55;55.52
12759;BME280;20944;47.048;15.390;2023-05-21T09:52:54;97564.56;;;23.40;56.60
12759;BME280;20944;47.048;15.390;2023-05-21T09:55:24;97532.75;;;23.03;58.43
12759;BME280;20944;47.048;15.390;2023-05-21T09:57:53;97555.72;;;23.28;58.51
12759;BME280;20944;47.048;15.390;2023-05-21T10:00:23;97552.25;;;23.60;57.75
12759;BME280;20944;47.048;15.390;2023-05-21T10:02:53;97540.91;;;23.79;57.41
12759;BME280;20944;47.048;15.390;2023-05-21T10:05:25;97548.31;;;24.07;56.07
12759;BME280;20944;47.048;15.390;2023-05-21T10:07:58;97526.78;;;24.09;55.97
12759;BME280;20944;47.048;15.390;2023-05-21T10:10:29;97550.56;;;24.23;55.06
12759;BME280;20944;47.048;15.390;2023-05-21T10:12:59;97550.75;;;24.31;55.68
12759;BME280;20944;47.048;15.390;2023-05-21T10:15:34;97558.06;;;24.40;52.13
12759;BME280;20944;47.048;15.390;2023-05-21T10:18:03;97550.16;;;24.39;56.32
12759;BME280;20944;47.048;15.390;2023-05-21T10:20:35;97516.56;;;24.35;57.70
12759;BME280;20944;47.048;15.390;2023-05-21T10:23:04;97550.00;;;24.61;55.92
12759;BME280;20944;47.048;15.390;2023-05-21T10:25:32;97551.16;;;24.68;54.47
12759;BME280;20944;47.048;15.390;2023-05-21T10:28:02;97548.09;;;24.73;52.70
12759;BME280;20944;47.048;15.390;2023-05-21T10:30:30;97545.47;;;24.83;56.02
12759;BME280;20944;47.048;15.390;2023-05-21T10:33:00;97543.16;;;24.99;53.20
12759;BME280;20944;47.048;15.390;2023-05-21T10:35:29;97546.16;;;25.06;53.83
12759;BME280;20944;47.048;15.390;2023-05-21T10:38:02;97542.25;;;25.19;54.14
12759;BME280;20944;47.048;15.390;2023-05-21T10:40:31;97540.06;;;25.34;53.15
12759;BME280;20944;47.048;15.390;2023-05-21T10:43:24;97534.91;;;25.52;51.69
12759;BME280;20944;47.048;15.390;2023-05-21T10:46:15;97538.53;;;25.51;49.71
12759;BME280;20944;47.048;15.390;2023-05-21T10:48:57;97492.97;;;25.20;51.29
12759;BME280;20944;47.048;15.390;2023-05-21T10:51:37;97481.13;;;24.83;50.79
12759;BME280;20944;47.048;15.390;2023-05-21T10:54:34;97535.38;;;24.96;53.30
12759;BME280;20944;47.048;15.390;2023-05-21T10:57:16;97532.81;;;24.64;56.96
12759;BME280;20944;47.048;15.390;2023-05-21T10:59:50;97528.53;;;24.52;54.06
12759;BME280;20944;47.048;15.390;2023-05-21T11:02:19;97530.66;;;24.37;53.61
12759;BME280;20944;47.048;15.390;2023-05-21T11:04:57;97529.81;;;24.36;56.18
12759;BME280;20944;47.048;15.390;2023-05-21T11:07:49;97525.91;;;24.40;51.66
12759;BME280;20944;47.048;15.390;2023-05-21T11:10:35;97522.72;;;24.46;53.48
12759;BME280;20944;47.048;15.390;2023-05-21T11:13:11;97522.28;;;24.51;51.08
12759;BME280;20944;47.048;15.390;2023-05-21T11:16:05;97514.59;;;24.58;54.60
12759;BME280;20944;47.048;15.390;2023-05-21T11:19:03;97507.94;;;24.83;54.72
12759;BME280;20944;47.048;15.390;2023-05-21T11:21:35;97521.25;;;25.24;55.50
12759;BME280;20944;47.048;15.390;2023-05-21T11:24:06;97525.41;;;25.08;54.52
12759;BME280;20944;47.048;15.390;2023-05-21T11:27:00;97516.78;;;24.73;50.48
12759;BME280;20944;47.048;15.390;2023-05-21T11:32:14;97496.16;;;24.22;50.96
12759;BME280;20944;47.048;15.390;2023-05-21T11:34:47;97462.47;;;24.20;51.71
12759;BME280;20944;47.048;15.390;2023-05-21T11:37:26;97492.28;;;24.78;51.76
12759;BME280;20944;47.048;15.390;2023-05-21T11:39:57;97510.72;;;25.02;49.50
12759;BME280;20944;47.048;15.390;2023-05-21T11:42:48;97516.72;;;24.94;51.06
12759;BME280;20944;47.048;15.390;2023-05-21T11:45:18;97462.81;;;24.57;50.88
12759;BME280;20944;47.048;15.390;2023-05-21T11:47:47;97508.81;;;24.83;51.04
12759;BME280;20944;47.048;15.390;2023-05-21T11:50:17;97506.94;;;25.05;53.09
12759;BME280;20944;47.048;15.390;2023-05-21T11:52:47;97416.56;;;24.55;52.13
12759;BME280;20944;47.048;15.390;2023-05-21T11:55:20;97496.25;;;25.14;52.67
12759;BME280;20944;47.048;15.390;2023-05-21T11:57:52;97493.91;;;25.50;50.04
12759;BME280;20944;47.048;15.390;2023-05-21T12:00:21;97459.72;;;25.42;47.85
12759;BME280;20944;47.048;15.390;2023-05-21T12:02:50;97494.63;;;25.62;50.23
12759;BME280;20944;47.048;15.390;2023-05-21T12:05:20;97489.41;;;25.60;47.07
12759;BME280;20944;47.048;15.390;2023-05-21T12:07:48;97473.50;;;25.09;46.12
12759;BME280;20944;47.048;15.390;2023-05-21T12:10:20;97497.41;;;25.21;46.60
12759;BME280;20944;47.048;15.390;2023-05-21T12:12:51;97485.16;;;25.58;48.40
12759;BME280;20944;47.048;15.390;2023-05-21T12:15:24;97480.38;;;26.00;49.48
12759;BME280;20944;47.048;15.390;2023-05-21T12:17:53;97479.66;;;26.17;47.62
12759;BME280;20944;47.048;15.390;2023-05-21T12:20:24;97486.19;;;25.95;49.49
12759;BME280;20944;47.048;15.390;2023-05-21T12:22:56;97481.22;;;26.00;43.90
12759;BME280;20944;47.048;15.390;2023-05-21T12:25:24;97479.53;;;25.99;46.62
12759;BME280;20944;47.048;15.390;2023-05-21T12:27:54;97460.59;;;25.81;47.59
12759;BME280;20944;47.048;15.390;2023-05-21T12:30:24;97483.16;;;25.40;45.24
12759;BME280;20944;47.048;15.390;2023-05-21T12:32:56;97487.50;;;25.22;46.03
12759;BME280;20944;47.048;15.390;2023-05-21T12:35:25;97466.59;;;25.25;45.64
12759;BME280;20944;47.048;15.390;2023-05-21T12:37:53;97472.44;;;25.50;46.32
12759;BME280;20944;47.048;15.390;2023-05-21T12:40:33;97470.91;;;26.05;47.13
12759;BME280;20944;47.048;15.390;2023-05-21T12:43:06;97460.63;;;26.67;46.34
12759;BME280;20944;47.048;15.390;2023-05-21T12:45:34;97457.56;;;27.17;46.21
12759;BME280;20944;47.048;15.390;2023-05-21T12:48:05;97452.00;;;27.64;45.15
12759;BME280;20944;47.048;15.390;2023-05-21T12:50:37;97450.00;;;28.02;42.19
12759;BME280;20944;47.048;15.390;2023-05-21T12:53:08;97428.00;;;27.88;44.41
12759;BME280;20944;47.048;15.390;2023-05-21T12:55:36;97447.47;;;28.00;42.67
12759;BME280;20944;47.048;15.390;2023-05-21T12:58:06;97442.88;;;27.75;38.98
12759;BME280;20944;47.048;15.390;2023-05-21T13:00:35;97444.25;;;27.61;40.42